<?xml version="1.0" encoding="utf-8"?>
<gpx xmlns:xsi="http://www.w3.org/2001/XMLSchema-instance" xmlns:xsd="http://www.w3.org/2001/XMLSchema" version="1.1" creator="Shapelink.com" xmlns="http://www.topografix.com/GPX/1/1" xmlns:gpxtpx="http://www.garmin.com/xmlschemas/TrackPointExtension/v1">
  <metadata>
    <name>Gåing 2.06 km, 2012-07-30</name>
    <desc></desc>
    <author><name>Mikael Blom</name></author> 
    <time>2012-07-30T20:17:52Z</time>
  </metadata>
  <trk>
    <name>Gåing 2.06 km, 2012-07-30</name>
    <trkseg>
      <trkpt lat="59.9752442" lon="17.737806">
        <ele>0</ele>
        <time>2012-07-30T20:17:52Z</time>
      </trkpt>
      <trkpt lat="59.9752257" lon="17.7377196">
        <ele>0</ele>
        <time>2012-07-30T20:17:58Z</time>
      </trkpt>
      <trkpt lat="59.9750649" lon="17.7375221">
        <ele>9.75061</ele>
        <time>2012-07-30T20:18:04Z</time>
      </trkpt>
      <trkpt lat="59.9749705" lon="17.7373941">
        <ele>17.4412</ele>
        <time>2012-07-30T20:18:11Z</time>
      </trkpt>
      <trkpt lat="59.9749169" lon="17.737318">
        <ele>21.2864</ele>
        <time>2012-07-30T20:18:15Z</time>
      </trkpt>
      <trkpt lat="59.9748338" lon="17.7371552">
        <ele>26.0929</ele>
        <time>2012-07-30T20:18:21Z</time>
      </trkpt>
      <trkpt lat="59.9747366" lon="17.7369735">
        <ele>32.3416</ele>
        <time>2012-07-30T20:18:28Z</time>
      </trkpt>
      <trkpt lat="59.9746703" lon="17.7368223">
        <ele>36.1868</ele>
        <time>2012-07-30T20:18:34Z</time>
      </trkpt>
      <trkpt lat="59.9746097" lon="17.7366586">
        <ele>38.5901</ele>
        <time>2012-07-30T20:18:40Z</time>
      </trkpt>
      <trkpt lat="59.9745615" lon="17.7364997">
        <ele>39.5513</ele>
        <time>2012-07-30T20:18:47Z</time>
      </trkpt>
      <trkpt lat="59.974509" lon="17.7363496">
        <ele>40.0321</ele>
        <time>2012-07-30T20:18:53Z</time>
      </trkpt>
      <trkpt lat="59.9744782" lon="17.736197">
        <ele>39.0707</ele>
        <time>2012-07-30T20:18:59Z</time>
      </trkpt>
      <trkpt lat="59.9744292" lon="17.7359786">
        <ele>39.5513</ele>
        <time>2012-07-30T20:19:06Z</time>
      </trkpt>
      <trkpt lat="59.9743712" lon="17.7356919">
        <ele>40.0321</ele>
        <time>2012-07-30T20:19:16Z</time>
      </trkpt>
      <trkpt lat="59.9743475" lon="17.735517">
        <ele>38.5901</ele>
        <time>2012-07-30T20:19:22Z</time>
      </trkpt>
      <trkpt lat="59.9743336" lon="17.7354001">
        <ele>36.6675</ele>
        <time>2012-07-30T20:19:27Z</time>
      </trkpt>
      <trkpt lat="59.9743175" lon="17.7352043">
        <ele>36.1868</ele>
        <time>2012-07-30T20:19:34Z</time>
      </trkpt>
      <trkpt lat="59.9743083" lon="17.7350501">
        <ele>34.7449</ele>
        <time>2012-07-30T20:19:40Z</time>
      </trkpt>
      <trkpt lat="59.97429" lon="17.7347933">
        <ele>34.2642</ele>
        <time>2012-07-30T20:19:49Z</time>
      </trkpt>
      <trkpt lat="59.9742952" lon="17.7345924">
        <ele>33.3029</ele>
        <time>2012-07-30T20:19:57Z</time>
      </trkpt>
      <trkpt lat="59.9742995" lon="17.734365">
        <ele>32.3416</ele>
        <time>2012-07-30T20:20:06Z</time>
      </trkpt>
      <trkpt lat="59.9743166" lon="17.7340654">
        <ele>30.8995</ele>
        <time>2012-07-30T20:20:18Z</time>
      </trkpt>
      <trkpt lat="59.9743144" lon="17.7339054">
        <ele>29.9381</ele>
        <time>2012-07-30T20:20:24Z</time>
      </trkpt>
      <trkpt lat="59.9743396" lon="17.7336544">
        <ele>29.4575</ele>
        <time>2012-07-30T20:20:34Z</time>
      </trkpt>
      <trkpt lat="59.9743443" lon="17.7335512">
        <ele>29.9381</ele>
        <time>2012-07-30T20:20:38Z</time>
      </trkpt>
      <trkpt lat="59.9743486" lon="17.7333341">
        <ele>30.8995</ele>
        <time>2012-07-30T20:20:45Z</time>
      </trkpt>
      <trkpt lat="59.9743582" lon="17.7331122">
        <ele>29.9381</ele>
        <time>2012-07-30T20:20:53Z</time>
      </trkpt>
      <trkpt lat="59.9743677" lon="17.7328621">
        <ele>28.9769</ele>
        <time>2012-07-30T20:21:02Z</time>
      </trkpt>
      <trkpt lat="59.9743692" lon="17.7326475">
        <ele>28.4962</ele>
        <time>2012-07-30T20:21:09Z</time>
      </trkpt>
      <trkpt lat="59.9743475" lon="17.7323705">
        <ele>30.8995</ele>
        <time>2012-07-30T20:21:17Z</time>
      </trkpt>
      <trkpt lat="59.9743299" lon="17.7321167">
        <ele>33.3029</ele>
        <time>2012-07-30T20:21:24Z</time>
      </trkpt>
      <trkpt lat="59.9743221" lon="17.7318976">
        <ele>33.3029</ele>
        <time>2012-07-30T20:21:31Z</time>
      </trkpt>
      <trkpt lat="59.9743311" lon="17.7317225">
        <ele>33.3029</ele>
        <time>2012-07-30T20:21:38Z</time>
      </trkpt>
      <trkpt lat="59.9743303" lon="17.7315174">
        <ele>33.3029</ele>
        <time>2012-07-30T20:21:45Z</time>
      </trkpt>
      <trkpt lat="59.9743397" lon="17.7312412">
        <ele>33.3029</ele>
        <time>2012-07-30T20:21:55Z</time>
      </trkpt>
      <trkpt lat="59.9743572" lon="17.7309464">
        <ele>33.7834</ele>
        <time>2012-07-30T20:22:05Z</time>
      </trkpt>
      <trkpt lat="59.9743698" lon="17.7306828">
        <ele>33.7834</ele>
        <time>2012-07-30T20:22:14Z</time>
      </trkpt>
      <trkpt lat="59.9743812" lon="17.7304495">
        <ele>34.7449</ele>
        <time>2012-07-30T20:22:22Z</time>
      </trkpt>
      <trkpt lat="59.9744053" lon="17.7302615">
        <ele>33.7834</ele>
        <time>2012-07-30T20:22:29Z</time>
      </trkpt>
      <trkpt lat="59.9744305" lon="17.7300424">
        <ele>32.3416</ele>
        <time>2012-07-30T20:22:38Z</time>
      </trkpt>
      <trkpt lat="59.9744464" lon="17.7298348">
        <ele>31.8607</ele>
        <time>2012-07-30T20:22:45Z</time>
      </trkpt>
      <trkpt lat="59.9744589" lon="17.7296352">
        <ele>30.8995</ele>
        <time>2012-07-30T20:22:52Z</time>
      </trkpt>
      <trkpt lat="59.9744815" lon="17.7294115">
        <ele>27.5349</ele>
        <time>2012-07-30T20:23:01Z</time>
      </trkpt>
      <trkpt lat="59.9744826" lon="17.7292104">
        <ele>26.5736</ele>
        <time>2012-07-30T20:23:08Z</time>
      </trkpt>
      <trkpt lat="59.9744599" lon="17.7289542">
        <ele>28.9769</ele>
        <time>2012-07-30T20:23:15Z</time>
      </trkpt>
      <trkpt lat="59.9744575" lon="17.728922">
        <ele>29.4575</ele>
        <time>2012-07-30T20:23:16Z</time>
      </trkpt>
      <trkpt lat="59.9744799" lon="17.7288884">
        <ele>28.9769</ele>
        <time>2012-07-30T20:23:19Z</time>
      </trkpt>
      <trkpt lat="59.974493" lon="17.7290817">
        <ele>28.4962</ele>
        <time>2012-07-30T20:23:26Z</time>
      </trkpt>
      <trkpt lat="59.974496" lon="17.7293044">
        <ele>27.5349</ele>
        <time>2012-07-30T20:23:32Z</time>
      </trkpt>
      <trkpt lat="59.9745024" lon="17.7294648">
        <ele>27.5349</ele>
        <time>2012-07-30T20:23:38Z</time>
      </trkpt>
      <trkpt lat="59.9744946" lon="17.7295335">
        <ele>28.4962</ele>
        <time>2012-07-30T20:23:42Z</time>
      </trkpt>
      <trkpt lat="59.9744802" lon="17.7295815">
        <ele>29.4575</ele>
        <time>2012-07-30T20:23:45Z</time>
      </trkpt>
      <trkpt lat="59.9744903" lon="17.7297054">
        <ele>30.4188</ele>
        <time>2012-07-30T20:23:49Z</time>
      </trkpt>
      <trkpt lat="59.9745085" lon="17.7300068">
        <ele>29.9381</ele>
        <time>2012-07-30T20:23:58Z</time>
      </trkpt>
      <trkpt lat="59.9745061" lon="17.730225">
        <ele>30.8995</ele>
        <time>2012-07-30T20:24:05Z</time>
      </trkpt>
      <trkpt lat="59.9745015" lon="17.7304036">
        <ele>31.3801</ele>
        <time>2012-07-30T20:24:11Z</time>
      </trkpt>
      <trkpt lat="59.974479" lon="17.7305683">
        <ele>31.3801</ele>
        <time>2012-07-30T20:24:17Z</time>
      </trkpt>
      <trkpt lat="59.9744526" lon="17.7307573">
        <ele>31.3801</ele>
        <time>2012-07-30T20:24:24Z</time>
      </trkpt>
      <trkpt lat="59.9744299" lon="17.7310905">
        <ele>33.7834</ele>
        <time>2012-07-30T20:24:35Z</time>
      </trkpt>
      <trkpt lat="59.9744261" lon="17.7312551">
        <ele>32.8223</ele>
        <time>2012-07-30T20:24:41Z</time>
      </trkpt>
      <trkpt lat="59.9744221" lon="17.7314555">
        <ele>32.3416</ele>
        <time>2012-07-30T20:24:48Z</time>
      </trkpt>
      <trkpt lat="59.9744257" lon="17.7317306">
        <ele>31.3801</ele>
        <time>2012-07-30T20:24:58Z</time>
      </trkpt>
      <trkpt lat="59.9744294" lon="17.7319975">
        <ele>32.8223</ele>
        <time>2012-07-30T20:25:07Z</time>
      </trkpt>
      <trkpt lat="59.9744351" lon="17.7323431">
        <ele>36.1868</ele>
        <time>2012-07-30T20:25:18Z</time>
      </trkpt>
      <trkpt lat="59.9744401" lon="17.7324058">
        <ele>35.7061</ele>
        <time>2012-07-30T20:25:20Z</time>
      </trkpt>
      <trkpt lat="59.9744483" lon="17.7326957">
        <ele>34.7449</ele>
        <time>2012-07-30T20:25:30Z</time>
      </trkpt>
      <trkpt lat="59.9744465" lon="17.7329868">
        <ele>36.1868</ele>
        <time>2012-07-30T20:25:40Z</time>
      </trkpt>
      <trkpt lat="59.974438" lon="17.7333208">
        <ele>38.1094</ele>
        <time>2012-07-30T20:25:51Z</time>
      </trkpt>
      <trkpt lat="59.9744256" lon="17.7335919">
        <ele>38.1094</ele>
        <time>2012-07-30T20:26:00Z</time>
      </trkpt>
      <trkpt lat="59.9744069" lon="17.7338214">
        <ele>36.1868</ele>
        <time>2012-07-30T20:26:08Z</time>
      </trkpt>
      <trkpt lat="59.9743952" lon="17.7340467">
        <ele>35.2255</ele>
        <time>2012-07-30T20:26:16Z</time>
      </trkpt>
      <trkpt lat="59.9743873" lon="17.7343301">
        <ele>34.7449</ele>
        <time>2012-07-30T20:26:26Z</time>
      </trkpt>
      <trkpt lat="59.9743838" lon="17.7346705">
        <ele>36.1868</ele>
        <time>2012-07-30T20:26:37Z</time>
      </trkpt>
      <trkpt lat="59.9743854" lon="17.7349117">
        <ele>33.7834</ele>
        <time>2012-07-30T20:26:45Z</time>
      </trkpt>
      <trkpt lat="59.974395" lon="17.7350886">
        <ele>31.3801</ele>
        <time>2012-07-30T20:26:51Z</time>
      </trkpt>
      <trkpt lat="59.9744056" lon="17.7353407">
        <ele>29.4575</ele>
        <time>2012-07-30T20:27:00Z</time>
      </trkpt>
      <trkpt lat="59.9744188" lon="17.7355583">
        <ele>27.0543</ele>
        <time>2012-07-30T20:27:08Z</time>
      </trkpt>
      <trkpt lat="59.9744454" lon="17.7357848">
        <ele>27.0543</ele>
        <time>2012-07-30T20:27:16Z</time>
      </trkpt>
      <trkpt lat="59.9745034" lon="17.7360544">
        <ele>28.4962</ele>
        <time>2012-07-30T20:27:26Z</time>
      </trkpt>
      <trkpt lat="59.9745835" lon="17.7363675">
        <ele>28.0155</ele>
        <time>2012-07-30T20:27:38Z</time>
      </trkpt>
      <trkpt lat="59.9746733" lon="17.7366664">
        <ele>30.8995</ele>
        <time>2012-07-30T20:27:50Z</time>
      </trkpt>
      <trkpt lat="59.9747398" lon="17.7368161">
        <ele>31.8607</ele>
        <time>2012-07-30T20:27:56Z</time>
      </trkpt>
      <trkpt lat="59.9747977" lon="17.7369257">
        <ele>32.3416</ele>
        <time>2012-07-30T20:28:01Z</time>
      </trkpt>
      <trkpt lat="59.9748682" lon="17.7370804">
        <ele>36.1868</ele>
        <time>2012-07-30T20:28:07Z</time>
      </trkpt>
      <trkpt lat="59.9749509" lon="17.7372704">
        <ele>40.5128</ele>
        <time>2012-07-30T20:28:16Z</time>
      </trkpt>
      <trkpt lat="59.9750267" lon="17.737432">
        <ele>43.3966</ele>
        <time>2012-07-30T20:28:24Z</time>
      </trkpt>
      <trkpt lat="59.975066" lon="17.7375283">
        <ele>42.916</ele>
        <time>2012-07-30T20:28:29Z</time>
      </trkpt>
      <trkpt lat="59.975127" lon="17.737648">
        <ele>44.8386</ele>
        <time>2012-07-30T20:28:35Z</time>
      </trkpt>
      <trkpt lat="59.9751805" lon="17.7377386">
        <ele>46.2806</ele>
        <time>2012-07-30T20:28:41Z</time>
      </trkpt>
      <trkpt lat="59.9752639" lon="17.737876">
        <ele>47.2418</ele>
        <time>2012-07-30T20:28:49Z</time>
      </trkpt>
      <trkpt lat="59.9753219" lon="17.7379693">
        <ele>48.2034</ele>
        <time>2012-07-30T20:28:55Z</time>
      </trkpt>
      <trkpt lat="59.9753935" lon="17.7380941">
        <ele>49.1646</ele>
        <time>2012-07-30T20:29:02Z</time>
      </trkpt>
      <trkpt lat="59.9754417" lon="17.7381778">
        <ele>49.6453</ele>
        <time>2012-07-30T20:29:07Z</time>
      </trkpt>
      <trkpt lat="59.9755052" lon="17.7382796">
        <ele>50.126</ele>
        <time>2012-07-30T20:29:13Z</time>
      </trkpt>
      <trkpt lat="59.9755622" lon="17.7383842">
        <ele>50.6066</ele>
        <time>2012-07-30T20:29:19Z</time>
      </trkpt>
      <trkpt lat="59.9756373" lon="17.7385063">
        <ele>51.0872</ele>
        <time>2012-07-30T20:29:27Z</time>
      </trkpt>
      <trkpt lat="59.9757109" lon="17.7386342">
        <ele>50.126</ele>
        <time>2012-07-30T20:29:35Z</time>
      </trkpt>
      <trkpt lat="59.9757659" lon="17.7387654">
        <ele>48.2034</ele>
        <time>2012-07-30T20:29:41Z</time>
      </trkpt>
      <trkpt lat="59.9757772" lon="17.7387902">
        <ele>48.2034</ele>
        <time>2012-07-30T20:29:42Z</time>
      </trkpt>
      <trkpt lat="59.9758169" lon="17.7389047">
        <ele>43.3966</ele>
        <time>2012-07-30T20:29:49Z</time>
      </trkpt>
      <trkpt lat="59.97584" lon="17.7389993">
        <ele>35.2255</ele>
        <time>2012-07-30T20:29:55Z</time>
      </trkpt>
      <trkpt lat="59.9759195" lon="17.739142">
        <ele>35.7061</ele>
        <time>2012-07-30T20:30:03Z</time>
      </trkpt>
      <trkpt lat="59.9760008" lon="17.7392827">
        <ele>35.2255</ele>
        <time>2012-07-30T20:30:11Z</time>
      </trkpt>
      <trkpt lat="59.9761015" lon="17.7394313">
        <ele>34.2642</ele>
        <time>2012-07-30T20:30:19Z</time>
      </trkpt>
      <trkpt lat="59.9761881" lon="17.7395437">
        <ele>34.2642</ele>
        <time>2012-07-30T20:30:25Z</time>
      </trkpt>
      <trkpt lat="59.9762719" lon="17.7396702">
        <ele>34.7449</ele>
        <time>2012-07-30T20:30:32Z</time>
      </trkpt>
      <trkpt lat="59.976346" lon="17.7397445">
        <ele>34.2642</ele>
        <time>2012-07-30T20:30:38Z</time>
      </trkpt>
      <trkpt lat="59.9764043" lon="17.7397407">
        <ele>33.7834</ele>
        <time>2012-07-30T20:30:44Z</time>
      </trkpt>
      <trkpt lat="59.9764802" lon="17.739624">
        <ele>34.2642</ele>
        <time>2012-07-30T20:30:50Z</time>
      </trkpt>
      <trkpt lat="59.9765404" lon="17.7395003">
        <ele>32.3416</ele>
        <time>2012-07-30T20:30:57Z</time>
      </trkpt>
      <trkpt lat="59.9766044" lon="17.7394214">
        <ele>31.3801</ele>
        <time>2012-07-30T20:31:03Z</time>
      </trkpt>
      <trkpt lat="59.9766697" lon="17.7393878">
        <ele>30.8995</ele>
        <time>2012-07-30T20:31:09Z</time>
      </trkpt>
      <trkpt lat="59.9766776" lon="17.7393822">
        <ele>30.4188</ele>
        <time>2012-07-30T20:31:10Z</time>
      </trkpt>
      <trkpt lat="59.9767755" lon="17.7393009">
        <ele>30.8995</ele>
        <time>2012-07-30T20:31:20Z</time>
      </trkpt>
      <trkpt lat="59.9768433" lon="17.7392683">
        <ele>30.4188</ele>
        <time>2012-07-30T20:31:26Z</time>
      </trkpt>
      <trkpt lat="59.9768529" lon="17.7392594">
        <ele>29.9381</ele>
        <time>2012-07-30T20:31:27Z</time>
      </trkpt>
      <trkpt lat="59.9769876" lon="17.7392269">
        <ele>30.8995</ele>
        <time>2012-07-30T20:31:36Z</time>
      </trkpt>
      <trkpt lat="59.977077" lon="17.7391933">
        <ele>31.8607</ele>
        <time>2012-07-30T20:31:43Z</time>
      </trkpt>
      <trkpt lat="59.9771493" lon="17.7391604">
        <ele>32.8223</ele>
        <time>2012-07-30T20:31:48Z</time>
      </trkpt>
      <trkpt lat="59.9772044" lon="17.7391145">
        <ele>33.7834</ele>
        <time>2012-07-30T20:31:52Z</time>
      </trkpt>
      <trkpt lat="59.9772928" lon="17.7390827">
        <ele>34.7449</ele>
        <time>2012-07-30T20:31:59Z</time>
      </trkpt>
      <trkpt lat="59.9773725" lon="17.7390185">
        <ele>33.7834</ele>
        <time>2012-07-30T20:32:05Z</time>
      </trkpt>
      <trkpt lat="59.977456" lon="17.7389452">
        <ele>35.2255</ele>
        <time>2012-07-30T20:32:11Z</time>
      </trkpt>
      <trkpt lat="59.9775286" lon="17.7389418">
        <ele>34.2642</ele>
        <time>2012-07-30T20:32:17Z</time>
      </trkpt>
      <trkpt lat="59.9776394" lon="17.7389301">
        <ele>33.3029</ele>
        <time>2012-07-30T20:32:26Z</time>
      </trkpt>
      <trkpt lat="59.9777391" lon="17.7389523">
        <ele>31.8607</ele>
        <time>2012-07-30T20:32:34Z</time>
      </trkpt>
      <trkpt lat="59.97784" lon="17.7389894">
        <ele>30.8995</ele>
        <time>2012-07-30T20:32:42Z</time>
      </trkpt>
      <trkpt lat="59.9779047" lon="17.7390211">
        <ele>30.8995</ele>
        <time>2012-07-30T20:32:47Z</time>
      </trkpt>
      <trkpt lat="59.9779967" lon="17.7390668">
        <ele>30.4188</ele>
        <time>2012-07-30T20:32:53Z</time>
      </trkpt>
      <trkpt lat="59.9780632" lon="17.7390995">
        <ele>27.5349</ele>
        <time>2012-07-30T20:32:58Z</time>
      </trkpt>
      <trkpt lat="59.9781638" lon="17.7391197">
        <ele>29.9381</ele>
        <time>2012-07-30T20:33:03Z</time>
      </trkpt>
      <trkpt lat="59.9782376" lon="17.7391391">
        <ele>29.9381</ele>
        <time>2012-07-30T20:33:09Z</time>
      </trkpt>
      <trkpt lat="59.9783455" lon="17.7391798">
        <ele>29.9381</ele>
        <time>2012-07-30T20:33:17Z</time>
      </trkpt>
      <trkpt lat="59.9784481" lon="17.7391797">
        <ele>33.7834</ele>
        <time>2012-07-30T20:33:23Z</time>
      </trkpt>
      <trkpt lat="59.9785631" lon="17.7392429">
        <ele>37.1481</ele>
        <time>2012-07-30T20:33:30Z</time>
      </trkpt>
      <trkpt lat="59.9786672" lon="17.7392989">
        <ele>36.6675</ele>
        <time>2012-07-30T20:33:38Z</time>
      </trkpt>
      <trkpt lat="59.9787751" lon="17.7392782">
        <ele>35.2255</ele>
        <time>2012-07-30T20:33:46Z</time>
      </trkpt>
      <trkpt lat="59.9788874" lon="17.739319">
        <ele>32.8223</ele>
        <time>2012-07-30T20:33:54Z</time>
      </trkpt>
      <trkpt lat="59.9789013" lon="17.7394932">
        <ele>34.7449</ele>
        <time>2012-07-30T20:34:00Z</time>
      </trkpt>
      <trkpt lat="59.9788657" lon="17.7395983">
        <ele>35.7061</ele>
        <time>2012-07-30T20:34:06Z</time>
      </trkpt>
      <trkpt lat="59.9788382" lon="17.7396575">
        <ele>37.1481</ele>
        <time>2012-07-30T20:34:10Z</time>
      </trkpt>
      <trkpt lat="59.9788325" lon="17.7396998">
        <ele>36.6675</ele>
        <time>2012-07-30T20:34:12Z</time>
      </trkpt>
      <trkpt lat="59.9788484" lon="17.7399174">
        <ele>37.6287</ele>
        <time>2012-07-30T20:34:20Z</time>
      </trkpt>
    </trkseg>
  </trk>
</gpx>